sensor_id;sensor_type;location;lat;lon;timestamp;P1;durP1;ratioP1;P2;durP2;ratioP2
50417;SDS011;36346;48.280;14.292;2022-12-17T00:01:40;54.01;;;52.37;;
50417;SDS011;36346;48.280;14.292;2022-12-17T00:04:26;54.26;;;52.88;;
50417;SDS011;36346;48.280;14.292;2022-12-17T00:07:12;53.56;;;51.87;;
50417;SDS011;36346;48.280;14.292;2022-12-17T00:09:59;53.34;;;52.03;;
50417;SDS011;36346;48.280;14.292;2022-12-17T00:12:45;53.99;;;52.56;;
50417;SDS011;36346;48.280;14.292;2022-12-17T00:15:32;54.51;;;53.06;;
50417;SDS011;36346;48.280;14.292;2022-12-17T00:18:22;53.76;;;52.31;;
50417;SDS011;36346;48.280;14.292;2022-12-17T00:21:09;54.07;;;52.64;;
50417;SDS011;36346;48.280;14.292;2022-12-17T00:23:56;55.27;;;53.31;;
50417;SDS011;36346;48.280;14.292;2022-12-17T00:26:42;54.65;;;53.17;;
50417;SDS011;36346;48.280;14.292;2022-12-17T00:29:29;53.85;;;52.34;;
50417;SDS011;36346;48.280;14.292;2022-12-17T00:32:16;54.02;;;52.63;;
50417;SDS011;36346;48.280;14.292;2022-12-17T00:35:05;54.55;;;53.10;;
50417;SDS011;36346;48.280;14.292;2022-12-17T00:38:17;54.73;;;53.17;;
50417;SDS011;36346;48.280;14.292;2022-12-17T00:41:54;55.22;;;53.17;;
50417;SDS011;36346;48.280;14.292;2022-12-17T00:45:07;55.96;;;53.91;;
50417;SDS011;36346;48.280;14.292;2022-12-17T00:47:55;56.41;;;54.19;;
50417;SDS011;36346;48.280;14.292;2022-12-17T00:50:42;54.32;;;52.56;;
50417;SDS011;36346;48.280;14.292;2022-12-17T00:53:29;54.81;;;52.85;;
50417;SDS011;36346;48.280;14.292;2022-12-17T00:56:17;53.03;;;51.07;;
50417;SDS011;36346;48.280;14.292;2022-12-17T00:59:05;52.84;;;50.94;;
50417;SDS011;36346;48.280;14.292;2022-12-17T01:01:54;51.29;;;49.26;;
50417;SDS011;36346;48.280;14.292;2022-12-17T01:04:44;54.10;;;51.88;;
50417;SDS011;36346;48.280;14.292;2022-12-17T01:07:31;52.56;;;50.76;;
50417;SDS011;36346;48.280;14.292;2022-12-17T01:10:43;54.66;;;51.94;;
50417;SDS011;36346;48.280;14.292;2022-12-17T01:13:33;55.15;;;52.81;;
50417;SDS011;36346;48.280;14.292;2022-12-17T01:16:48;55.46;;;53.08;;
50417;SDS011;36346;48.280;14.292;2022-12-17T01:19:35;55.77;;;53.50;;
50417;SDS011;36346;48.280;14.292;2022-12-17T01:22:48;56.11;;;53.75;;
50417;SDS011;36346;48.280;14.292;2022-12-17T01:25:34;55.17;;;52.83;;
50417;SDS011;36346;48.280;14.292;2022-12-17T01:28:23;55.98;;;53.66;;
50417;SDS011;36346;48.280;14.292;2022-12-17T01:31:12;56.45;;;54.26;;
50417;SDS011;36346;48.280;14.292;2022-12-17T01:34:03;55.82;;;53.67;;
50417;SDS011;36346;48.280;14.292;2022-12-17T01:36:54;56.62;;;54.36;;
50417;SDS011;36346;48.280;14.292;2022-12-17T01:40:07;57.89;;;55.26;;
50417;SDS011;36346;48.280;14.292;2022-12-17T01:43:34;56.48;;;54.33;;
50417;SDS011;36346;48.280;14.292;2022-12-17T01:46:27;56.81;;;54.58;;
50417;SDS011;36346;48.280;14.292;2022-12-17T01:49:18;57.27;;;55.14;;
50417;SDS011;36346;48.280;14.292;2022-12-17T01:52:31;58.22;;;55.90;;
50417;SDS011;36346;48.280;14.292;2022-12-17T01:55:19;56.91;;;54.61;;
50417;SDS011;36346;48.280;14.292;2022-12-17T01:58:06;57.01;;;54.44;;
50417;SDS011;36346;48.280;14.292;2022-12-17T02:00:58;53.67;;;51.29;;
50417;SDS011;36346;48.280;14.292;2022-12-17T02:03:44;54.03;;;51.50;;
50417;SDS011;36346;48.280;14.292;2022-12-17T02:07:18;52.81;;;50.05;;
50417;SDS011;36346;48.280;14.292;2022-12-17T02:10:28;55.39;;;52.65;;
50417;SDS011;36346;48.280;14.292;2022-12-17T02:13:28;53.90;;;51.36;;
50417;SDS011;36346;48.280;14.292;2022-12-17T02:16:24;54.96;;;52.36;;
50417;SDS011;36346;48.280;14.292;2022-12-17T02:19:33;54.17;;;51.60;;
50417;SDS011;36346;48.280;14.292;2022-12-17T02:22:38;54.90;;;52.30;;
50417;SDS011;36346;48.280;14.292;2022-12-17T02:25:41;52.08;;;49.94;;
50417;SDS011;36346;48.280;14.292;2022-12-17T02:28:39;54.09;;;51.49;;
50417;SDS011;36346;48.280;14.292;2022-12-17T02:31:30;53.76;;;50.44;;
50417;SDS011;36346;48.280;14.292;2022-12-17T02:34:20;53.60;;;50.60;;
50417;SDS011;36346;48.280;14.292;2022-12-17T02:37:32;53.95;;;51.31;;
50417;SDS011;36346;48.280;14.292;2022-12-17T02:40:20;53.48;;;50.99;;
50417;SDS011;36346;48.280;14.292;2022-12-17T02:43:12;54.29;;;51.52;;
50417;SDS011;36346;48.280;14.292;2022-12-17T02:46:06;56.14;;;53.07;;
50417;SDS011;36346;48.280;14.292;2022-12-17T02:49:20;55.82;;;52.82;;
50417;SDS011;36346;48.280;14.292;2022-12-17T02:52:59;54.83;;;52.25;;
50417;SDS011;36346;48.280;14.292;2022-12-17T02:55:50;55.87;;;52.89;;
50417;SDS011;36346;48.280;14.292;2022-12-17T02:58:38;56.42;;;53.41;;
50417;SDS011;36346;48.280;14.292;2022-12-17T03:01:26;56.99;;;53.81;;
50417;SDS011;36346;48.280;14.292;2022-12-17T03:04:12;56.90;;;53.72;;
50417;SDS011;36346;48.280;14.292;2022-12-17T03:07:23;55.93;;;53.15;;
50417;SDS011;36346;48.280;14.292;2022-12-17T03:10:36;55.55;;;53.08;;
50417;SDS011;36346;48.280;14.292;2022-12-17T03:13:26;57.26;;;54.32;;
50417;SDS011;36346;48.280;14.292;2022-12-17T03:16:16;55.95;;;53.43;;
50417;SDS011;36346;48.280;14.292;2022-12-17T03:19:04;56.69;;;54.04;;
50417;SDS011;36346;48.280;14.292;2022-12-17T03:21:53;57.13;;;54.32;;
50417;SDS011;36346;48.280;14.292;2022-12-17T03:24:40;58.05;;;55.10;;
50417;SDS011;36346;48.280;14.292;2022-12-17T03:27:33;57.22;;;54.55;;
50417;SDS011;36346;48.280;14.292;2022-12-17T03:30:19;57.44;;;54.80;;
50417;SDS011;36346;48.280;14.292;2022-12-17T03:33:15;56.93;;;54.14;;
50417;SDS011;36346;48.280;14.292;2022-12-17T03:36:06;56.94;;;54.69;;
50417;SDS011;36346;48.280;14.292;2022-12-17T03:38:54;59.72;;;56.82;;
50417;SDS011;36346;48.280;14.292;2022-12-17T03:41:42;56.96;;;54.40;;
50417;SDS011;36346;48.280;14.292;2022-12-17T03:44:30;58.00;;;55.35;;
50417;SDS011;36346;48.280;14.292;2022-12-17T03:47:17;58.54;;;55.44;;
50417;SDS011;36346;48.280;14.292;2022-12-17T03:50:09;57.81;;;55.22;;
50417;SDS011;36346;48.280;14.292;2022-12-17T03:53:21;58.51;;;55.55;;
50417;SDS011;36346;48.280;14.292;2022-12-17T03:56:10;57.70;;;54.94;;
50417;SDS011;36346;48.280;14.292;2022-12-17T03:58:57;58.37;;;55.53;;
50417;SDS011;36346;48.280;14.292;2022-12-17T04:01:45;60.19;;;56.93;;
50417;SDS011;36346;48.280;14.292;2022-12-17T04:04:36;60.71;;;57.61;;
50417;SDS011;36346;48.280;14.292;2022-12-17T04:07:49;58.98;;;56.52;;
50417;SDS011;36346;48.280;14.292;2022-12-17T04:10:36;60.36;;;57.11;;
50417;SDS011;36346;48.280;14.292;2022-12-17T04:13:24;60.01;;;57.26;;
50417;SDS011;36346;48.280;14.292;2022-12-17T04:16:12;58.24;;;56.22;;
50417;SDS011;36346;48.280;14.292;2022-12-17T04:18:59;58.51;;;56.41;;
50417;SDS011;36346;48.280;14.292;2022-12-17T04:22:13;61.05;;;58.32;;
50417;SDS011;36346;48.280;14.292;2022-12-17T04:25:01;61.24;;;58.69;;
50417;SDS011;36346;48.280;14.292;2022-12-17T04:27:48;60.52;;;57.78;;
50417;SDS011;36346;48.280;14.292;2022-12-17T04:30:34;59.20;;;56.92;;
50417;SDS011;36346;48.280;14.292;2022-12-17T04:33:23;62.47;;;59.43;;
50417;SDS011;36346;48.280;14.292;2022-12-17T04:36:10;62.03;;;59.59;;
50417;SDS011;36346;48.280;14.292;2022-12-17T04:38:57;62.47;;;59.75;;
50417;SDS011;36346;48.280;14.292;2022-12-17T04:41:44;61.61;;;58.79;;
50417;SDS011;36346;48.280;14.292;2022-12-17T04:44:34;61.00;;;58.31;;
50417;SDS011;36346;48.280;14.292;2022-12-17T04:47:21;60.89;;;58.69;;
50417;SDS011;36346;48.280;14.292;2022-12-17T04:50:32;58.29;;;56.35;;
50417;SDS011;36346;48.280;14.292;2022-12-17T04:54:10;60.37;;;57.78;;
50417;SDS011;36346;48.280;14.292;2022-12-17T04:57:00;61.15;;;58.47;;
50417;SDS011;36346;48.280;14.292;2022-12-17T05:00:12;59.14;;;56.80;;
50417;SDS011;36346;48.280;14.292;2022-12-17T05:03:48;61.45;;;58.77;;
50417;SDS011;36346;48.280;14.292;2022-12-17T05:06:59;61.64;;;58.91;;
50417;SDS011;36346;48.280;14.292;2022-12-17T05:10:13;61.44;;;59.05;;
50417;SDS011;36346;48.280;14.292;2022-12-17T05:13:01;61.16;;;59.12;;
50417;SDS011;36346;48.280;14.292;2022-12-17T05:15:53;61.70;;;59.45;;
50417;SDS011;36346;48.280;14.292;2022-12-17T05:18:41;60.24;;;57.99;;
50417;SDS011;36346;48.280;14.292;2022-12-17T05:21:30;63.35;;;60.89;;
50417;SDS011;36346;48.280;14.292;2022-12-17T05:24:19;66.44;;;63.61;;
50417;SDS011;36346;48.280;14.292;2022-12-17T05:27:06;64.73;;;62.64;;
50417;SDS011;36346;48.280;14.292;2022-12-17T05:29:53;64.88;;;62.39;;
50417;SDS011;36346;48.280;14.292;2022-12-17T05:32:40;66.47;;;63.50;;
50417;SDS011;36346;48.280;14.292;2022-12-17T05:35:28;66.07;;;63.44;;
50417;SDS011;36346;48.280;14.292;2022-12-17T05:39:04;66.61;;;64.49;;
50417;SDS011;36346;48.280;14.292;2022-12-17T05:41:59;65.36;;;63.05;;
50417;SDS011;36346;48.280;14.292;2022-12-17T05:45:10;64.49;;;62.18;;
50417;SDS011;36346;48.280;14.292;2022-12-17T05:48:22;64.21;;;61.99;;
50417;SDS011;36346;48.280;14.292;2022-12-17T05:51:10;65.24;;;62.83;;
50417;SDS011;36346;48.280;14.292;2022-12-17T05:54:03;64.78;;;62.84;;
50417;SDS011;36346;48.280;14.292;2022-12-17T05:56:53;63.85;;;61.76;;
50417;SDS011;36346;48.280;14.292;2022-12-17T05:59:43;64.02;;;62.02;;
50417;SDS011;36346;48.280;14.292;2022-12-17T06:02:38;63.47;;;61.57;;
50417;SDS011;36346;48.280;14.292;2022-12-17T06:05:53;64.47;;;62.42;;
50417;SDS011;36346;48.280;14.292;2022-12-17T06:08:44;62.82;;;61.01;;
50417;SDS011;36346;48.280;14.292;2022-12-17T06:11:30;62.13;;;59.99;;
50417;SDS011;36346;48.280;14.292;2022-12-17T06:14:43;63.60;;;61.77;;
50417;SDS011;36346;48.280;14.292;2022-12-17T06:17:35;63.98;;;62.03;;
50417;SDS011;36346;48.280;14.292;2022-12-17T06:20:24;61.62;;;59.61;;
50417;SDS011;36346;48.280;14.292;2022-12-17T06:23:11;63.99;;;61.97;;
50417;SDS011;36346;48.280;14.292;2022-12-17T06:26:22;64.31;;;62.36;;
50417;SDS011;36346;48.280;14.292;2022-12-17T06:29:10;65.60;;;63.38;;
50417;SDS011;36346;48.280;14.292;2022-12-17T06:31:58;64.82;;;62.54;;
50417;SDS011;36346;48.280;14.292;2022-12-17T06:34:45;64.83;;;62.84;;
50417;SDS011;36346;48.280;14.292;2022-12-17T06:37:32;62.41;;;60.87;;
50417;SDS011;36346;48.280;14.292;2022-12-17T06:40:19;62.50;;;61.11;;
50417;SDS011;36346;48.280;14.292;2022-12-17T06:43:07;64.70;;;62.87;;
50417;SDS011;36346;48.280;14.292;2022-12-17T06:46:19;64.41;;;62.61;;
50417;SDS011;36346;48.280;14.292;2022-12-17T06:49:31;63.10;;;61.40;;
50417;SDS011;36346;48.280;14.292;2022-12-17T06:52:27;63.80;;;62.12;;
50417;SDS011;36346;48.280;14.292;2022-12-17T06:55:14;62.97;;;61.36;;
50417;SDS011;36346;48.280;14.292;2022-12-17T06:58:05;62.05;;;60.00;;
50417;SDS011;36346;48.280;14.292;2022-12-17T07:00:53;65.20;;;62.79;;
50417;SDS011;36346;48.280;14.292;2022-12-17T07:03:42;63.65;;;62.00;;
50417;SDS011;36346;48.280;14.292;2022-12-17T07:06:28;64.30;;;62.48;;
50417;SDS011;36346;48.280;14.292;2022-12-17T07:09:40;64.23;;;62.69;;
50417;SDS011;36346;48.280;14.292;2022-12-17T07:12:26;63.21;;;61.66;;
50417;SDS011;36346;48.280;14.292;2022-12-17T07:15:13;64.45;;;62.78;;
50417;SDS011;36346;48.280;14.292;2022-12-17T07:18:02;65.78;;;63.65;;
50417;SDS011;36346;48.280;14.292;2022-12-17T07:20:51;66.17;;;64.44;;
50417;SDS011;36346;48.280;14.292;2022-12-17T07:23:39;66.38;;;64.34;;
50417;SDS011;36346;48.280;14.292;2022-12-17T07:26:28;65.84;;;63.93;;
50417;SDS011;36346;48.280;14.292;2022-12-17T07:29:16;67.14;;;65.55;;
50417;SDS011;36346;48.280;14.292;2022-12-17T07:32:04;66.67;;;64.87;;
50417;SDS011;36346;48.280;14.292;2022-12-17T07:34:54;66.45;;;64.69;;
50417;SDS011;36346;48.280;14.292;2022-12-17T07:37:42;68.14;;;66.47;;
50417;SDS011;36346;48.280;14.292;2022-12-17T07:40:32;68.67;;;67.05;;
50417;SDS011;36346;48.280;14.292;2022-12-17T07:43:43;68.47;;;66.34;;
50417;SDS011;36346;48.280;14.292;2022-12-17T07:46:31;67.19;;;65.53;;
50417;SDS011;36346;48.280;14.292;2022-12-17T07:49:17;69.02;;;67.04;;
50417;SDS011;36346;48.280;14.292;2022-12-17T07:52:31;67.49;;;65.69;;
50417;SDS011;36346;48.280;14.292;2022-12-17T07:55:43;67.37;;;65.76;;
50417;SDS011;36346;48.280;14.292;2022-12-17T07:58:31;68.68;;;66.90;;
50417;SDS011;36346;48.280;14.292;2022-12-17T08:01:45;67.52;;;66.10;;
50417;SDS011;36346;48.280;14.292;2022-12-17T08:05:19;68.48;;;66.91;;
50417;SDS011;36346;48.280;14.292;2022-12-17T08:08:07;69.03;;;66.81;;
50417;SDS011;36346;48.280;14.292;2022-12-17T08:10:57;67.01;;;65.34;;
50417;SDS011;36346;48.280;14.292;2022-12-17T08:13:43;68.66;;;67.03;;
50417;SDS011;36346;48.280;14.292;2022-12-17T08:16:55;66.50;;;65.16;;
50417;SDS011;36346;48.280;14.292;2022-12-17T08:19:46;67.46;;;65.97;;
50417;SDS011;36346;48.280;14.292;2022-12-17T08:22:35;68.94;;;66.84;;
50417;SDS011;36346;48.280;14.292;2022-12-17T08:25:23;67.12;;;65.65;;
50417;SDS011;36346;48.280;14.292;2022-12-17T08:28:10;67.19;;;65.66;;
50417;SDS011;36346;48.280;14.292;2022-12-17T08:31:18;67.68;;;65.93;;
50417;SDS011;36346;48.280;14.292;2022-12-17T08:34:31;67.04;;;65.54;;
50417;SDS011;36346;48.280;14.292;2022-12-17T08:37:19;66.77;;;65.44;;
50417;SDS011;36346;48.280;14.292;2022-12-17T08:40:08;66.70;;;65.09;;
50417;SDS011;36346;48.280;14.292;2022-12-17T08:43:19;66.35;;;64.45;;
50417;SDS011;36346;48.280;14.292;2022-12-17T08:46:06;67.99;;;66.17;;
50417;SDS011;36346;48.280;14.292;2022-12-17T08:48:53;67.43;;;65.46;;
50417;SDS011;36346;48.280;14.292;2022-12-17T08:52:05;69.68;;;67.86;;
50417;SDS011;36346;48.280;14.292;2022-12-17T08:55:20;72.56;;;70.03;;
50417;SDS011;36346;48.280;14.292;2022-12-17T08:58:08;70.93;;;68.83;;
50417;SDS011;36346;48.280;14.292;2022-12-17T09:01:00;67.46;;;65.91;;
50417;SDS011;36346;48.280;14.292;2022-12-17T09:03:48;66.71;;;65.15;;
50417;SDS011;36346;48.280;14.292;2022-12-17T09:06:37;66.83;;;65.05;;
50417;SDS011;36346;48.280;14.292;2022-12-17T09:09:49;65.96;;;64.49;;
50417;SDS011;36346;48.280;14.292;2022-12-17T09:13:18;66.52;;;64.83;;
50417;SDS011;36346;48.280;14.292;2022-12-17T09:16:31;71.20;;;69.19;;
50417;SDS011;36346;48.280;14.292;2022-12-17T09:19:20;67.71;;;65.76;;
50417;SDS011;36346;48.280;14.292;2022-12-17T09:22:11;65.35;;;63.56;;
50417;SDS011;36346;48.280;14.292;2022-12-17T09:25:55;64.30;;;62.55;;
50417;SDS011;36346;48.280;14.292;2022-12-17T09:28:48;64.56;;;63.27;;
50417;SDS011;36346;48.280;14.292;2022-12-17T09:31:34;64.43;;;63.09;;
50417;SDS011;36346;48.280;14.292;2022-12-17T09:34:45;65.49;;;64.05;;
50417;SDS011;36346;48.280;14.292;2022-12-17T09:37:31;65.39;;;63.78;;
50417;SDS011;36346;48.280;14.292;2022-12-17T09:40:22;64.45;;;63.03;;
50417;SDS011;36346;48.280;14.292;2022-12-17T09:46:24;65.83;;;64.30;;
50417;SDS011;36346;48.280;14.292;2022-12-17T09:49:43;66.38;;;64.71;;
50417;SDS011;36346;48.280;14.292;2022-12-17T09:52:37;64.50;;;63.37;;
50417;SDS011;36346;48.280;14.292;2022-12-17T09:55:31;63.30;;;61.92;;
50417;SDS011;36346;48.280;14.292;2022-12-17T09:58:26;64.59;;;63.27;;
50417;SDS011;36346;48.280;14.292;2022-12-17T10:01:15;64.09;;;62.54;;
50417;SDS011;36346;48.280;14.292;2022-12-17T10:04:17;64.50;;;63.11;;
50417;SDS011;36346;48.280;14.292;2022-12-17T10:07:13;64.09;;;62.63;;
50417;SDS011;36346;48.280;14.292;2022-12-17T10:10:40;66.51;;;65.20;;
50417;SDS011;36346;48.280;14.292;2022-12-17T10:13:19;66.31;;;64.88;;
50417;SDS011;36346;48.280;14.292;2022-12-17T10:19:40;66.08;;;64.66;;
50417;SDS011;36346;48.280;14.292;2022-12-17T10:22:51;69.27;;;67.38;;
50417;SDS011;36346;48.280;14.292;2022-12-17T10:26:29;67.25;;;65.67;;
50417;SDS011;36346;48.280;14.292;2022-12-17T10:35:07;68.24;;;66.67;;
50417;SDS011;36346;48.280;14.292;2022-12-17T10:37:59;67.22;;;66.06;;
50417;SDS011;36346;48.280;14.292;2022-12-17T10:40:48;68.61;;;67.12;;
50417;SDS011;36346;48.280;14.292;2022-12-17T10:43:37;67.08;;;65.52;;
50417;SDS011;36346;48.280;14.292;2022-12-17T10:46:27;66.92;;;65.72;;
50417;SDS011;36346;48.280;14.292;2022-12-17T10:49:17;68.17;;;66.79;;
50417;SDS011;36346;48.280;14.292;2022-12-17T10:55:19;68.38;;;66.80;;
50417;SDS011;36346;48.280;14.292;2022-12-17T10:58:15;65.78;;;64.32;;
50417;SDS011;36346;48.280;14.292;2022-12-17T11:01:11;65.35;;;63.98;;
50417;SDS011;36346;48.280;14.292;2022-12-17T11:04:33;66.18;;;64.87;;
50417;SDS011;36346;48.280;14.292;2022-12-17T11:07:47;64.94;;;63.50;;
50417;SDS011;36346;48.280;14.292;2022-12-17T11:11:20;66.32;;;64.34;;
50417;SDS011;36346;48.280;14.292;2022-12-17T11:14:13;65.98;;;64.38;;
50417;SDS011;36346;48.280;14.292;2022-12-17T11:17:02;64.55;;;63.06;;
50417;SDS011;36346;48.280;14.292;2022-12-17T11:19:54;65.69;;;63.93;;
50417;SDS011;36346;48.280;14.292;2022-12-17T11:22:48;63.29;;;61.98;;
50417;SDS011;36346;48.280;14.292;2022-12-17T11:25:41;65.28;;;63.86;;
50417;SDS011;36346;48.280;14.292;2022-12-17T11:28:39;65.65;;;63.74;;
50417;SDS011;36346;48.280;14.292;2022-12-17T11:34:50;64.73;;;63.18;;
50417;SDS011;36346;48.280;14.292;2022-12-17T11:40:47;64.74;;;63.34;;
50417;SDS011;36346;48.280;14.292;2022-12-17T11:47:02;63.92;;;62.30;;
50417;SDS011;36346;48.280;14.292;2022-12-17T11:50:23;63.16;;;61.78;;
50417;SDS011;36346;48.280;14.292;2022-12-17T11:53:20;62.81;;;61.07;;
50417;SDS011;36346;48.280;14.292;2022-12-17T11:56:22;63.74;;;62.35;;
50417;SDS011;36346;48.280;14.292;2022-12-17T11:59:43;62.22;;;60.68;;
50417;SDS011;36346;48.280;14.292;2022-12-17T12:05:55;63.64;;;62.26;;
50417;SDS011;36346;48.280;14.292;2022-12-17T12:14:47;63.27;;;62.01;;
50417;SDS011;36346;48.280;14.292;2022-12-17T12:21:37;62.63;;;61.26;;
50417;SDS011;36346;48.280;14.292;2022-12-17T12:30:51;70.71;;;69.06;;
50417;SDS011;36346;48.280;14.292;2022-12-17T12:33:59;64.27;;;62.62;;
50417;SDS011;36346;48.280;14.292;2022-12-17T12:36:54;64.71;;;63.18;;
50417;SDS011;36346;48.280;14.292;2022-12-17T12:43:21;63.57;;;61.70;;
50417;SDS011;36346;48.280;14.292;2022-12-17T12:46:41;62.19;;;60.44;;
50417;SDS011;36346;48.280;14.292;2022-12-17T12:49:44;61.36;;;59.99;;
50417;SDS011;36346;48.280;14.292;2022-12-17T12:52:42;62.68;;;61.02;;
50417;SDS011;36346;48.280;14.292;2022-12-17T12:55:53;64.43;;;62.38;;
50417;SDS011;36346;48.280;14.292;2022-12-17T12:58:41;64.05;;;61.98;;
50417;SDS011;36346;48.280;14.292;2022-12-17T13:01:34;63.68;;;61.99;;
50417;SDS011;36346;48.280;14.292;2022-12-17T13:04:30;65.63;;;63.28;;
50417;SDS011;36346;48.280;14.292;2022-12-17T13:07:21;65.69;;;63.93;;
50417;SDS011;36346;48.280;14.292;2022-12-17T13:09:54;66.01;;;64.65;;
50417;SDS011;36346;48.280;14.292;2022-12-17T13:12:49;66.22;;;64.23;;
50417;SDS011;36346;48.280;14.292;2022-12-17T13:15:24;65.64;;;63.95;;
50417;SDS011;36346;48.280;14.292;2022-12-17T13:21:21;65.58;;;64.18;;
50417;SDS011;36346;48.280;14.292;2022-12-17T13:23:56;66.41;;;64.75;;
50417;SDS011;36346;48.280;14.292;2022-12-17T13:29:35;66.13;;;64.37;;
50417;SDS011;36346;48.280;14.292;2022-12-17T13:32:20;67.96;;;66.07;;
50417;SDS011;36346;48.280;14.292;2022-12-17T13:41:12;69.01;;;66.98;;
50417;SDS011;36346;48.280;14.292;2022-12-17T13:43:50;70.23;;;68.38;;
50417;SDS011;36346;48.280;14.292;2022-12-17T13:46:23;69.38;;;67.17;;
50417;SDS011;36346;48.280;14.292;2022-12-17T13:49:20;67.96;;;65.95;;
50417;SDS011;36346;48.280;14.292;2022-12-17T13:52:06;66.66;;;65.20;;
50417;SDS011;36346;48.280;14.292;2022-12-17T13:54:50;67.97;;;65.63;;
50417;SDS011;36346;48.280;14.292;2022-12-17T13:57:44;67.97;;;66.45;;
50417;SDS011;36346;48.280;14.292;2022-12-17T14:00:28;68.38;;;66.53;;
50417;SDS011;36346;48.280;14.292;2022-12-17T14:03:08;68.15;;;66.12;;
50417;SDS011;36346;48.280;14.292;2022-12-17T14:05:41;69.82;;;67.63;;
50417;SDS011;36346;48.280;14.292;2022-12-17T14:08:16;68.73;;;66.75;;
50417;SDS011;36346;48.280;14.292;2022-12-17T14:10:51;68.36;;;66.39;;
50417;SDS011;36346;48.280;14.292;2022-12-17T14:13:41;68.06;;;66.23;;
50417;SDS011;36346;48.280;14.292;2022-12-17T14:16:39;68.43;;;66.38;;
50417;SDS011;36346;48.280;14.292;2022-12-17T14:19:40;69.78;;;67.70;;
50417;SDS011;36346;48.280;14.292;2022-12-17T14:22:18;70.34;;;68.32;;
50417;SDS011;36346;48.280;14.292;2022-12-17T14:25:43;68.73;;;67.07;;
50417;SDS011;36346;48.280;14.292;2022-12-17T14:31:01;68.98;;;67.07;;
50417;SDS011;36346;48.280;14.292;2022-12-17T14:34:01;69.82;;;67.69;;
50417;SDS011;36346;48.280;14.292;2022-12-17T14:36:40;70.00;;;68.18;;
50417;SDS011;36346;48.280;14.292;2022-12-17T14:39:17;71.58;;;69.25;;
50417;SDS011;36346;48.280;14.292;2022-12-17T14:41:51;71.12;;;69.48;;
50417;SDS011;36346;48.280;14.292;2022-12-17T14:45:04;70.81;;;68.71;;
50417;SDS011;36346;48.280;14.292;2022-12-17T14:47:56;71.70;;;69.63;;
50417;SDS011;36346;48.280;14.292;2022-12-17T14:50:54;70.85;;;69.06;;
50417;SDS011;36346;48.280;14.292;2022-12-17T14:53:25;70.69;;;69.02;;
50417;SDS011;36346;48.280;14.292;2022-12-17T14:55:54;69.65;;;67.97;;
50417;SDS011;36346;48.280;14.292;2022-12-17T14:58:25;71.50;;;69.24;;
50417;SDS011;36346;48.280;14.292;2022-12-17T15:01:14;70.22;;;68.43;;
50417;SDS011;36346;48.280;14.292;2022-12-17T15:03:43;70.64;;;69.00;;
50417;SDS011;36346;48.280;14.292;2022-12-17T15:06:18;72.77;;;70.69;;
50417;SDS011;36346;48.280;14.292;2022-12-17T15:08:49;72.34;;;69.91;;
50417;SDS011;36346;48.280;14.292;2022-12-17T15:11:20;71.66;;;69.64;;
50417;SDS011;36346;48.280;14.292;2022-12-17T15:13:51;71.90;;;69.91;;
50417;SDS011;36346;48.280;14.292;2022-12-17T15:16:23;73.85;;;71.47;;
50417;SDS011;36346;48.280;14.292;2022-12-17T15:18:52;72.50;;;70.41;;
50417;SDS011;36346;48.280;14.292;2022-12-17T15:21:21;72.68;;;70.93;;
50417;SDS011;36346;48.280;14.292;2022-12-17T15:23:51;71.60;;;69.65;;
50417;SDS011;36346;48.280;14.292;2022-12-17T15:26:20;74.93;;;72.59;;
50417;SDS011;36346;48.280;14.292;2022-12-17T15:28:48;72.33;;;70.19;;
50417;SDS011;36346;48.280;14.292;2022-12-17T15:31:16;72.50;;;70.12;;
50417;SDS011;36346;48.280;14.292;2022-12-17T15:33:51;72.72;;;70.44;;
50417;SDS011;36346;48.280;14.292;2022-12-17T15:36:21;72.64;;;70.25;;
50417;SDS011;36346;48.280;14.292;2022-12-17T15:38:49;73.36;;;71.09;;
50417;SDS011;36346;48.280;14.292;2022-12-17T15:41:17;70.33;;;68.47;;
50417;SDS011;36346;48.280;14.292;2022-12-17T15:44:04;72.77;;;70.69;;
50417;SDS011;36346;48.280;14.292;2022-12-17T15:46:33;72.51;;;70.02;;
50417;SDS011;36346;48.280;14.292;2022-12-17T15:49:01;72.68;;;70.40;;
50417;SDS011;36346;48.280;14.292;2022-12-17T15:51:31;74.25;;;71.91;;
50417;SDS011;36346;48.280;14.292;2022-12-17T15:53:59;73.35;;;70.74;;
50417;SDS011;36346;48.280;14.292;2022-12-17T15:56:28;73.36;;;71.17;;
50417;SDS011;36346;48.280;14.292;2022-12-17T15:58:56;72.95;;;70.86;;
50417;SDS011;36346;48.280;14.292;2022-12-17T16:01:25;72.70;;;70.86;;
50417;SDS011;36346;48.280;14.292;2022-12-17T16:03:53;72.07;;;70.24;;
50417;SDS011;36346;48.280;14.292;2022-12-17T16:06:24;73.21;;;71.11;;
50417;SDS011;36346;48.280;14.292;2022-12-17T16:08:51;73.87;;;71.90;;
50417;SDS011;36346;48.280;14.292;2022-12-17T16:11:20;74.90;;;72.86;;
50417;SDS011;36346;48.280;14.292;2022-12-17T16:13:51;73.43;;;71.72;;
50417;SDS011;36346;48.280;14.292;2022-12-17T16:16:21;75.39;;;73.61;;
50417;SDS011;36346;48.280;14.292;2022-12-17T16:18:51;75.53;;;73.60;;
50417;SDS011;36346;48.280;14.292;2022-12-17T16:21:18;76.02;;;73.58;;
50417;SDS011;36346;48.280;14.292;2022-12-17T16:23:48;75.09;;;72.53;;
50417;SDS011;36346;48.280;14.292;2022-12-17T16:26:17;73.39;;;71.45;;
50417;SDS011;36346;48.280;14.292;2022-12-17T16:28:45;74.64;;;72.37;;
50417;SDS011;36346;48.280;14.292;2022-12-17T16:31:14;73.70;;;71.19;;
50417;SDS011;36346;48.280;14.292;2022-12-17T16:34:08;74.77;;;72.36;;
50417;SDS011;36346;48.280;14.292;2022-12-17T16:36:41;74.81;;;72.76;;
50417;SDS011;36346;48.280;14.292;2022-12-17T16:39:13;71.78;;;69.74;;
50417;SDS011;36346;48.280;14.292;2022-12-17T16:41:44;72.66;;;70.66;;
50417;SDS011;36346;48.280;14.292;2022-12-17T16:44:12;73.23;;;71.53;;
50417;SDS011;36346;48.280;14.292;2022-12-17T16:46:41;74.15;;;71.93;;
50417;SDS011;36346;48.280;14.292;2022-12-17T16:49:12;73.89;;;72.00;;
50417;SDS011;36346;48.280;14.292;2022-12-17T16:51:45;73.67;;;71.87;;
50417;SDS011;36346;48.280;14.292;2022-12-17T16:54:18;73.96;;;71.65;;
50417;SDS011;36346;48.280;14.292;2022-12-17T16:56:49;73.76;;;71.40;;
50417;SDS011;36346;48.280;14.292;2022-12-17T16:59:17;72.11;;;70.03;;
50417;SDS011;36346;48.280;14.292;2022-12-17T17:01:47;73.77;;;71.53;;
50417;SDS011;36346;48.280;14.292;2022-12-17T17:04:18;72.86;;;70.66;;
50417;SDS011;36346;48.280;14.292;2022-12-17T17:06:49;71.47;;;69.39;;
50417;SDS011;36346;48.280;14.292;2022-12-17T17:09:20;71.33;;;69.32;;
50417;SDS011;36346;48.280;14.292;2022-12-17T17:11:56;70.39;;;68.55;;
50417;SDS011;36346;48.280;14.292;2022-12-17T17:14:26;71.55;;;69.74;;
50417;SDS011;36346;48.280;14.292;2022-12-17T17:16:54;71.26;;;69.10;;
50417;SDS011;36346;48.280;14.292;2022-12-17T17:19:22;71.96;;;69.75;;
50417;SDS011;36346;48.280;14.292;2022-12-17T17:21:51;74.82;;;71.98;;
50417;SDS011;36346;48.280;14.292;2022-12-17T17:24:22;74.22;;;71.63;;
50417;SDS011;36346;48.280;14.292;2022-12-17T17:26:53;71.31;;;69.08;;
50417;SDS011;36346;48.280;14.292;2022-12-17T17:29:22;73.16;;;70.95;;